Terminal Aerodrome Forecast
Issued by NWS

Home | Current Version | Previous Version | Text Only | Print | Product List | Glossary On
Versions: 1 2 3 4 5 6 7 8 9 10 11 12 13 14 15 16 17 18 19 20 21 22 23 24 25 26 27 28 29 30 31 32 33 34 35 36 37 38 39 40 41 42 43 44 45 46 47 48 49 50
665
FTAK31 PANC 300530
TAFACD
TAF
PACD 300530Z 3006/3106 34010KT 6SM BR BKN006 OVC015
      TEMPO 3006/3010 3SM BR BKN004 OVC010
     FM301000 30005KT 3SM BR OVC004
     FM301800 32006KT 6SM BR SCT005 OVC007
     FM302100 34004KT P6SM SCT007 OVC015=

USA.gov is the U.S. government's official web portal to all federal, state and local government web resources and services.